sensor_id;sensor_type;location;lat;lon;timestamp;temperature;humidity
7341;DHT22;6870;50.944;6.932;2023-07-13T00:01:15;26.80;21.90
7341;DHT22;6870;50.944;6.932;2023-07-13T00:03:44;26.70;21.80
7341;DHT22;6870;50.944;6.932;2023-07-13T00:06:12;26.80;21.90
7341;DHT22;6870;50.944;6.932;2023-07-13T00:08:40;27.20;22.30
7341;DHT22;6870;50.944;6.932;2023-07-13T00:11:08;26.80;22.10
7341;DHT22;6870;50.944;6.932;2023-07-13T00:13:37;27.00;22.20
7341;DHT22;6870;50.944;6.932;2023-07-13T00:16:06;26.90;22.30
7341;DHT22;6870;50.944;6.932;2023-07-13T00:18:36;26.90;22.40
7341;DHT22;6870;50.944;6.932;2023-07-13T00:21:05;26.90;22.50
7341;DHT22;6870;50.944;6.932;2023-07-13T00:23:33;26.60;22.40
7341;DHT22;6870;50.944;6.932;2023-07-13T00:26:01;26.70;22.50
7341;DHT22;6870;50.944;6.932;2023-07-13T00:28:29;26.70;22.60
7341;DHT22;6870;50.944;6.932;2023-07-13T00:30:58;26.70;22.60
7341;DHT22;6870;50.944;6.932;2023-07-13T00:33:27;26.90;22.70
7341;DHT22;6870;50.944;6.932;2023-07-13T00:35:57;26.60;22.60
7341;DHT22;6870;50.944;6.932;2023-07-13T00:38:25;27.00;23.00
7341;DHT22;6870;50.944;6.932;2023-07-13T00:40:54;26.70;22.80
7341;DHT22;6870;50.944;6.932;2023-07-13T00:43:24;26.60;22.80
7341;DHT22;6870;50.944;6.932;2023-07-13T00:46:23;26.50;22.80
7341;DHT22;6870;50.944;6.932;2023-07-13T00:48:54;26.80;23.00
7341;DHT22;6870;50.944;6.932;2023-07-13T00:51:35;26.80;23.10
7341;DHT22;6870;50.944;6.932;2023-07-13T00:54:09;26.90;23.20
7341;DHT22;6870;50.944;6.932;2023-07-13T00:56:39;26.80;23.30
7341;DHT22;6870;50.944;6.932;2023-07-13T00:59:10;26.70;23.30
7341;DHT22;6870;50.944;6.932;2023-07-13T01:01:39;26.60;23.30
7341;DHT22;6870;50.944;6.932;2023-07-13T01:04:08;26.60;23.30
7341;DHT22;6870;50.944;6.932;2023-07-13T01:06:37;26.50;23.30
7341;DHT22;6870;50.944;6.932;2023-07-13T01:09:08;26.80;23.70
7341;DHT22;6870;50.944;6.932;2023-07-13T01:11:37;26.40;23.50
7341;DHT22;6870;50.944;6.932;2023-07-13T01:14:06;26.80;23.70
7341;DHT22;6870;50.944;6.932;2023-07-13T01:16:36;26.80;23.80
7341;DHT22;6870;50.944;6.932;2023-07-13T01:19:12;26.90;24.00
7341;DHT22;6870;50.944;6.932;2023-07-13T01:21:52;26.70;24.00
7341;DHT22;6870;50.944;6.932;2023-07-13T01:24:20;26.70;24.10
7341;DHT22;6870;50.944;6.932;2023-07-13T01:26:48;26.40;24.00
7341;DHT22;6870;50.944;6.932;2023-07-13T01:29:16;27.00;24.50
7341;DHT22;6870;50.944;6.932;2023-07-13T01:31:44;26.80;24.50
7341;DHT22;6870;50.944;6.932;2023-07-13T01:34:13;26.60;24.50
7341;DHT22;6870;50.944;6.932;2023-07-13T01:36:41;26.80;24.60
7341;DHT22;6870;50.944;6.932;2023-07-13T01:39:10;26.70;24.30
7341;DHT22;6870;50.944;6.932;2023-07-13T01:41:38;26.50;24.30
7341;DHT22;6870;50.944;6.932;2023-07-13T01:44:07;26.80;24.70
7341;DHT22;6870;50.944;6.932;2023-07-13T01:46:35;26.70;24.60
7341;DHT22;6870;50.944;6.932;2023-07-13T01:49:04;26.80;24.40
7341;DHT22;6870;50.944;6.932;2023-07-13T01:51:32;26.80;24.60
7341;DHT22;6870;50.944;6.932;2023-07-13T01:54:00;26.50;24.50
7341;DHT22;6870;50.944;6.932;2023-07-13T01:56:29;26.80;24.70
7341;DHT22;6870;50.944;6.932;2023-07-13T01:58:58;26.40;24.40
7341;DHT22;6870;50.944;6.932;2023-07-13T02:01:26;26.90;24.90
7341;DHT22;6870;50.944;6.932;2023-07-13T02:03:55;26.60;24.90
7341;DHT22;6870;50.944;6.932;2023-07-13T02:06:23;26.40;25.00
7341;DHT22;6870;50.944;6.932;2023-07-13T02:08:51;26.40;25.00
7341;DHT22;6870;50.944;6.932;2023-07-13T02:11:20;26.70;25.20
7341;DHT22;6870;50.944;6.932;2023-07-13T02:13:49;26.40;25.00
7341;DHT22;6870;50.944;6.932;2023-07-13T02:16:20;26.30;25.00
7341;DHT22;6870;50.944;6.932;2023-07-13T02:18:48;26.50;25.50
7341;DHT22;6870;50.944;6.932;2023-07-13T02:21:19;26.50;25.60
7341;DHT22;6870;50.944;6.932;2023-07-13T02:23:47;26.40;25.70
7341;DHT22;6870;50.944;6.932;2023-07-13T02:26:16;26.60;25.80
7341;DHT22;6870;50.944;6.932;2023-07-13T02:28:44;26.30;25.60
7341;DHT22;6870;50.944;6.932;2023-07-13T02:31:15;26.30;25.70
7341;DHT22;6870;50.944;6.932;2023-07-13T02:33:44;26.60;25.80
7341;DHT22;6870;50.944;6.932;2023-07-13T02:36:13;26.30;25.70
7341;DHT22;6870;50.944;6.932;2023-07-13T02:38:43;26.40;25.70
7341;DHT22;6870;50.944;6.932;2023-07-13T02:41:11;26.60;25.90
7341;DHT22;6870;50.944;6.932;2023-07-13T02:43:40;26.60;25.90
7341;DHT22;6870;50.944;6.932;2023-07-13T02:46:08;26.40;25.70
7341;DHT22;6870;50.944;6.932;2023-07-13T02:48:39;26.50;26.40
7341;DHT22;6870;50.944;6.932;2023-07-13T02:51:08;26.70;26.50
7341;DHT22;6870;50.944;6.932;2023-07-13T02:53:36;26.30;25.80
7341;DHT22;6870;50.944;6.932;2023-07-13T02:56:05;26.30;25.70
7341;DHT22;6870;50.944;6.932;2023-07-13T02:58:34;26.20;25.60
7341;DHT22;6870;50.944;6.932;2023-07-13T03:01:07;26.30;25.70
7341;DHT22;6870;50.944;6.932;2023-07-13T03:03:36;26.20;25.70
7341;DHT22;6870;50.944;6.932;2023-07-13T03:06:05;26.30;25.70
7341;DHT22;6870;50.944;6.932;2023-07-13T03:08:35;26.40;25.70
7341;DHT22;6870;50.944;6.932;2023-07-13T03:11:06;26.70;25.90
7341;DHT22;6870;50.944;6.932;2023-07-13T03:13:35;26.30;25.70
7341;DHT22;6870;50.944;6.932;2023-07-13T03:16:03;26.60;25.90
7341;DHT22;6870;50.944;6.932;2023-07-13T03:18:33;26.30;25.70
7341;DHT22;6870;50.944;6.932;2023-07-13T03:21:03;26.10;25.60
7341;DHT22;6870;50.944;6.932;2023-07-13T03:23:31;26.50;25.80
7341;DHT22;6870;50.944;6.932;2023-07-13T03:26:05;26.10;25.60
7341;DHT22;6870;50.944;6.932;2023-07-13T03:28:34;26.30;25.70
7341;DHT22;6870;50.944;6.932;2023-07-13T03:31:05;26.10;25.60
7341;DHT22;6870;50.944;6.932;2023-07-13T03:33:34;26.00;25.50
7341;DHT22;6870;50.944;6.932;2023-07-13T03:36:05;26.20;26.10
7341;DHT22;6870;50.944;6.932;2023-07-13T03:38:35;26.20;25.60
7341;DHT22;6870;50.944;6.932;2023-07-13T03:41:03;26.20;25.70
7341;DHT22;6870;50.944;6.932;2023-07-13T03:43:32;26.40;25.80
7341;DHT22;6870;50.944;6.932;2023-07-13T03:46:00;26.40;25.80
7341;DHT22;6870;50.944;6.932;2023-07-13T03:48:28;26.20;25.70
7341;DHT22;6870;50.944;6.932;2023-07-13T03:50:56;26.20;25.70
7341;DHT22;6870;50.944;6.932;2023-07-13T03:53:26;26.00;25.60
7341;DHT22;6870;50.944;6.932;2023-07-13T03:55:54;26.50;25.90
7341;DHT22;6870;50.944;6.932;2023-07-13T03:58:28;26.00;25.60
7341;DHT22;6870;50.944;6.932;2023-07-13T04:00:58;26.50;25.80
7341;DHT22;6870;50.944;6.932;2023-07-13T04:03:27;26.30;25.70
7341;DHT22;6870;50.944;6.932;2023-07-13T04:05:56;26.30;26.30
7341;DHT22;6870;50.944;6.932;2023-07-13T04:08:29;26.30;26.10
7341;DHT22;6870;50.944;6.932;2023-07-13T04:10:58;26.20;25.80
7341;DHT22;6870;50.944;6.932;2023-07-13T04:13:27;26.20;25.70
7341;DHT22;6870;50.944;6.932;2023-07-13T04:15:55;26.20;25.70
7341;DHT22;6870;50.944;6.932;2023-07-13T04:18:24;26.10;26.50
7341;DHT22;6870;50.944;6.932;2023-07-13T04:20:52;26.30;26.60
7341;DHT22;6870;50.944;6.932;2023-07-13T04:23:20;26.60;26.60
7341;DHT22;6870;50.944;6.932;2023-07-13T04:25:52;26.00;26.30
7341;DHT22;6870;50.944;6.932;2023-07-13T04:28:21;26.30;26.50
7341;DHT22;6870;50.944;6.932;2023-07-13T04:30:50;26.30;26.40
7341;DHT22;6870;50.944;6.932;2023-07-13T04:33:19;26.30;26.50
7341;DHT22;6870;50.944;6.932;2023-07-13T04:35:49;26.40;26.60
7341;DHT22;6870;50.944;6.932;2023-07-13T04:38:23;26.20;26.60
7341;DHT22;6870;50.944;6.932;2023-07-13T04:40:56;26.70;26.70
7341;DHT22;6870;50.944;6.932;2023-07-13T04:43:26;26.60;26.60
7341;DHT22;6870;50.944;6.932;2023-07-13T04:45:54;26.30;26.50
7341;DHT22;6870;50.944;6.932;2023-07-13T04:48:23;26.30;26.70
7341;DHT22;6870;50.944;6.932;2023-07-13T04:50:56;26.40;26.60
7341;DHT22;6870;50.944;6.932;2023-07-13T04:53:24;26.30;26.40
7341;DHT22;6870;50.944;6.932;2023-07-13T04:55:52;26.20;26.50
7341;DHT22;6870;50.944;6.932;2023-07-13T04:58:24;26.30;26.50
7341;DHT22;6870;50.944;6.932;2023-07-13T05:00:53;26.30;26.70
7341;DHT22;6870;50.944;6.932;2023-07-13T05:03:21;26.40;26.80
7341;DHT22;6870;50.944;6.932;2023-07-13T05:05:56;26.20;26.60
7341;DHT22;6870;50.944;6.932;2023-07-13T05:08:25;26.50;26.90
7341;DHT22;6870;50.944;6.932;2023-07-13T05:10:54;26.20;26.70
7341;DHT22;6870;50.944;6.932;2023-07-13T05:13:23;26.30;26.70
7341;DHT22;6870;50.944;6.932;2023-07-13T05:15:57;26.30;26.70
7341;DHT22;6870;50.944;6.932;2023-07-13T05:18:26;26.30;26.70
7341;DHT22;6870;50.944;6.932;2023-07-13T05:20:57;26.40;26.80
7341;DHT22;6870;50.944;6.932;2023-07-13T05:23:26;26.60;26.80
7341;DHT22;6870;50.944;6.932;2023-07-13T05:25:55;26.40;26.60
7341;DHT22;6870;50.944;6.932;2023-07-13T05:28:24;26.20;26.40
7341;DHT22;6870;50.944;6.932;2023-07-13T05:30:53;26.40;26.40
7341;DHT22;6870;50.944;6.932;2023-07-13T05:33:22;26.40;26.20
7341;DHT22;6870;50.944;6.932;2023-07-13T05:35:51;26.40;26.20
7341;DHT22;6870;50.944;6.932;2023-07-13T05:38:19;26.60;26.40
7341;DHT22;6870;50.944;6.932;2023-07-13T05:40:47;26.60;25.90
7341;DHT22;6870;50.944;6.932;2023-07-13T05:43:15;26.40;25.70
7341;DHT22;6870;50.944;6.932;2023-07-13T05:45:45;26.60;26.20
7341;DHT22;6870;50.944;6.932;2023-07-13T05:48:13;26.40;25.80
7341;DHT22;6870;50.944;6.932;2023-07-13T05:50:41;26.70;26.10
7341;DHT22;6870;50.944;6.932;2023-07-13T05:53:09;26.50;25.80
7341;DHT22;6870;50.944;6.932;2023-07-13T05:55:41;26.50;25.80
7341;DHT22;6870;50.944;6.932;2023-07-13T05:58:11;27.00;26.10
7341;DHT22;6870;50.944;6.932;2023-07-13T06:00:39;26.90;26.10
7341;DHT22;6870;50.944;6.932;2023-07-13T06:03:09;26.90;26.00
7341;DHT22;6870;50.944;6.932;2023-07-13T06:05:38;26.80;26.10
7341;DHT22;6870;50.944;6.932;2023-07-13T06:08:07;26.80;26.50
7341;DHT22;6870;50.944;6.932;2023-07-13T06:10:36;26.80;26.60
7341;DHT22;6870;50.944;6.932;2023-07-13T06:13:04;26.80;26.50
7341;DHT22;6870;50.944;6.932;2023-07-13T06:15:33;26.50;26.50
7341;DHT22;6870;50.944;6.932;2023-07-13T06:18:01;26.80;24.40
7341;DHT22;6870;50.944;6.932;2023-07-13T06:20:33;26.40;21.60
7341;DHT22;6870;50.944;6.932;2023-07-13T06:23:02;26.30;22.50
7341;DHT22;6870;50.944;6.932;2023-07-13T06:25:30;26.10;20.20
7341;DHT22;6870;50.944;6.932;2023-07-13T06:27:58;25.40;20.50
7341;DHT22;6870;50.944;6.932;2023-07-13T06:30:26;25.00;21.40
7341;DHT22;6870;50.944;6.932;2023-07-13T06:32:54;25.20;21.80
7341;DHT22;6870;50.944;6.932;2023-07-13T06:35:23;25.10;22.10
7341;DHT22;6870;50.944;6.932;2023-07-13T06:37:52;25.40;21.60
7341;DHT22;6870;50.944;6.932;2023-07-13T06:40:20;25.20;22.20
7341;DHT22;6870;50.944;6.932;2023-07-13T06:42:48;24.60;21.90
7341;DHT22;6870;50.944;6.932;2023-07-13T06:45:17;24.80;21.80
7341;DHT22;6870;50.944;6.932;2023-07-13T06:47:45;24.60;22.00
7341;DHT22;6870;50.944;6.932;2023-07-13T06:50:13;24.50;22.70
7341;DHT22;6870;50.944;6.932;2023-07-13T06:52:41;24.70;23.50
7341;DHT22;6870;50.944;6.932;2023-07-13T06:55:11;24.80;23.10
7341;DHT22;6870;50.944;6.932;2023-07-13T06:57:39;24.80;22.60
7341;DHT22;6870;50.944;6.932;2023-07-13T07:00:07;24.90;23.40
7341;DHT22;6870;50.944;6.932;2023-07-13T07:02:36;25.20;23.00
7341;DHT22;6870;50.944;6.932;2023-07-13T07:05:05;25.20;23.40
7341;DHT22;6870;50.944;6.932;2023-07-13T07:07:33;25.30;22.70
7341;DHT22;6870;50.944;6.932;2023-07-13T07:10:02;25.70;22.90
7341;DHT22;6870;50.944;6.932;2023-07-13T07:12:32;25.60;22.70
7341;DHT22;6870;50.944;6.932;2023-07-13T07:15:00;25.50;22.50
7341;DHT22;6870;50.944;6.932;2023-07-13T07:17:28;25.90;22.90
7341;DHT22;6870;50.944;6.932;2023-07-13T07:19:57;25.50;22.00
7341;DHT22;6870;50.944;6.932;2023-07-13T07:22:25;25.80;21.60
7341;DHT22;6870;50.944;6.932;2023-07-13T07:24:54;25.40;20.90
7341;DHT22;6870;50.944;6.932;2023-07-13T07:27:22;25.40;21.80
7341;DHT22;6870;50.944;6.932;2023-07-13T07:29:55;25.10;21.90
7341;DHT22;6870;50.944;6.932;2023-07-13T07:32:29;24.80;22.20
7341;DHT22;6870;50.944;6.932;2023-07-13T07:35:17;24.90;22.50
7341;DHT22;6870;50.944;6.932;2023-07-13T07:37:46;25.00;22.40
7341;DHT22;6870;50.944;6.932;2023-07-13T07:40:17;24.70;22.40
7341;DHT22;6870;50.944;6.932;2023-07-13T07:42:48;24.90;22.00
7341;DHT22;6870;50.944;6.932;2023-07-13T07:45:17;25.10;22.60
7341;DHT22;6870;50.944;6.932;2023-07-13T07:47:46;25.00;22.50
7341;DHT22;6870;50.944;6.932;2023-07-13T07:50:14;25.40;22.10
7341;DHT22;6870;50.944;6.932;2023-07-13T07:52:42;25.40;21.80
7341;DHT22;6870;50.944;6.932;2023-07-13T07:55:11;25.50;21.70
7341;DHT22;6870;50.944;6.932;2023-07-13T07:57:42;25.10;21.90
7341;DHT22;6870;50.944;6.932;2023-07-13T08:00:14;25.30;21.70
7341;DHT22;6870;50.944;6.932;2023-07-13T08:02:47;25.40;21.80
7341;DHT22;6870;50.944;6.932;2023-07-13T08:05:19;25.40;21.70
7341;DHT22;6870;50.944;6.932;2023-07-13T08:08:05;25.40;21.60
7341;DHT22;6870;50.944;6.932;2023-07-13T08:10:35;25.80;21.60
7341;DHT22;6870;50.944;6.932;2023-07-13T08:13:04;25.90;21.90
7341;DHT22;6870;50.944;6.932;2023-07-13T08:15:34;25.50;21.70
7341;DHT22;6870;50.944;6.932;2023-07-13T08:18:06;25.50;21.50
7341;DHT22;6870;50.944;6.932;2023-07-13T08:20:36;25.80;21.60
7341;DHT22;6870;50.944;6.932;2023-07-13T08:23:06;26.00;21.90
7341;DHT22;6870;50.944;6.932;2023-07-13T08:25:34;25.80;21.40
7341;DHT22;6870;50.944;6.932;2023-07-13T08:28:03;25.60;21.30
7341;DHT22;6870;50.944;6.932;2023-07-13T08:30:32;26.10;21.50
7341;DHT22;6870;50.944;6.932;2023-07-13T08:33:00;25.50;21.20
7341;DHT22;6870;50.944;6.932;2023-07-13T08:35:30;25.80;21.30
7341;DHT22;6870;50.944;6.932;2023-07-13T08:37:58;25.60;21.10
7341;DHT22;6870;50.944;6.932;2023-07-13T08:40:27;25.60;21.10
7341;DHT22;6870;50.944;6.932;2023-07-13T08:42:58;25.80;21.70
7341;DHT22;6870;50.944;6.932;2023-07-13T08:45:32;26.00;21.50
7341;DHT22;6870;50.944;6.932;2023-07-13T08:48:09;25.80;20.80
7341;DHT22;6870;50.944;6.932;2023-07-13T08:50:50;25.50;21.10
7341;DHT22;6870;50.944;6.932;2023-07-13T08:53:37;26.00;21.80
7341;DHT22;6870;50.944;6.932;2023-07-13T08:56:11;26.00;21.30
7341;DHT22;6870;50.944;6.932;2023-07-13T08:58:44;26.00;21.00
7341;DHT22;6870;50.944;6.932;2023-07-13T09:01:17;26.10;20.90
7341;DHT22;6870;50.944;6.932;2023-07-13T09:03:54;26.40;20.50
7341;DHT22;6870;50.944;6.932;2023-07-13T09:06:34;26.10;20.40
7341;DHT22;6870;50.944;6.932;2023-07-13T09:09:20;26.30;20.50
7341;DHT22;6870;50.944;6.932;2023-07-13T09:11:59;26.40;20.50
7341;DHT22;6870;50.944;6.932;2023-07-13T09:14:42;26.40;20.50
7341;DHT22;6870;50.944;6.932;2023-07-13T09:17:18;26.40;20.50
7341;DHT22;6870;50.944;6.932;2023-07-13T09:19:49;26.70;20.70
7341;DHT22;6870;50.944;6.932;2023-07-13T09:22:25;26.20;20.40
7341;DHT22;6870;50.944;6.932;2023-07-13T09:25:00;26.70;20.50
7341;DHT22;6870;50.944;6.932;2023-07-13T09:27:35;26.50;20.20
7341;DHT22;6870;50.944;6.932;2023-07-13T09:30:21;26.90;20.30
7341;DHT22;6870;50.944;6.932;2023-07-13T09:32:53;27.00;20.60
7341;DHT22;6870;50.944;6.932;2023-07-13T09:35:25;26.30;20.00
7341;DHT22;6870;50.944;6.932;2023-07-13T09:38:01;27.00;20.10
7341;DHT22;6870;50.944;6.932;2023-07-13T09:40:40;26.50;19.90
7341;DHT22;6870;50.944;6.932;2023-07-13T09:43:14;27.00;20.00
7341;DHT22;6870;50.944;6.932;2023-07-13T09:45:45;26.80;19.80
7341;DHT22;6870;50.944;6.932;2023-07-13T09:48:16;26.90;20.00
7341;DHT22;6870;50.944;6.932;2023-07-13T09:50:44;26.90;20.00
7341;DHT22;6870;50.944;6.932;2023-07-13T09:53:15;26.60;19.80
7341;DHT22;6870;50.944;6.932;2023-07-13T09:55:46;26.50;19.50
7341;DHT22;6870;50.944;6.932;2023-07-13T09:58:20;26.60;19.60
7341;DHT22;6870;50.944;6.932;2023-07-13T10:00:55;26.90;19.60
7341;DHT22;6870;50.944;6.932;2023-07-13T10:03:27;27.10;19.90
7341;DHT22;6870;50.944;6.932;2023-07-13T10:06:11;26.90;19.70
7341;DHT22;6870;50.944;6.932;2023-07-13T10:08:43;26.80;19.20
7341;DHT22;6870;50.944;6.932;2023-07-13T10:11:17;27.00;19.30
7341;DHT22;6870;50.944;6.932;2023-07-13T10:13:53;26.50;18.80
7341;DHT22;6870;50.944;6.932;2023-07-13T10:16:25;26.70;18.80
7341;DHT22;6870;50.944;6.932;2023-07-13T10:18:57;27.00;18.40
7341;DHT22;6870;50.944;6.932;2023-07-13T10:21:30;26.50;18.10
7341;DHT22;6870;50.944;6.932;2023-07-13T10:24:11;26.90;18.00
7341;DHT22;6870;50.944;6.932;2023-07-13T10:26:46;26.50;17.80
7341;DHT22;6870;50.944;6.932;2023-07-13T10:29:18;26.90;17.90
7341;DHT22;6870;50.944;6.932;2023-07-13T10:31:48;26.60;17.60
7341;DHT22;6870;50.944;6.932;2023-07-13T10:34:17;26.70;17.60
7341;DHT22;6870;50.944;6.932;2023-07-13T10:36:47;26.50;17.30
7341;DHT22;6870;50.944;6.932;2023-07-13T10:39:19;26.40;17.20
7341;DHT22;6870;50.944;6.932;2023-07-13T10:41:53;26.40;17.20
7341;DHT22;6870;50.944;6.932;2023-07-13T10:44:25;26.90;17.50
7341;DHT22;6870;50.944;6.932;2023-07-13T10:46:58;26.40;17.20
7341;DHT22;6870;50.944;6.932;2023-07-13T10:49:29;26.90;17.40
7341;DHT22;6870;50.944;6.932;2023-07-13T10:51:59;26.70;17.10
7341;DHT22;6870;50.944;6.932;2023-07-13T10:54:31;26.40;16.90
7341;DHT22;6870;50.944;6.932;2023-07-13T10:57:16;26.70;17.20
7341;DHT22;6870;50.944;6.932;2023-07-13T10:59:47;26.40;17.00
7341;DHT22;6870;50.944;6.932;2023-07-13T11:02:25;26.40;16.40
7341;DHT22;6870;50.944;6.932;2023-07-13T11:04:56;26.90;16.80
7341;DHT22;6870;50.944;6.932;2023-07-13T11:07:26;26.70;16.80
7341;DHT22;6870;50.944;6.932;2023-07-13T11:09:59;26.60;16.80
7341;DHT22;6870;50.944;6.932;2023-07-13T11:12:50;26.50;16.70
7341;DHT22;6870;50.944;6.932;2023-07-13T11:15:44;26.30;16.70
7341;DHT22;6870;50.944;6.932;2023-07-13T11:18:20;26.30;17.00
7341;DHT22;6870;50.944;6.932;2023-07-13T11:20:50;26.70;17.30
7341;DHT22;6870;50.944;6.932;2023-07-13T11:23:26;26.30;17.20
7341;DHT22;6870;50.944;6.932;2023-07-13T11:25:57;26.60;17.60
7341;DHT22;6870;50.944;6.932;2023-07-13T11:28:30;26.30;17.70
7341;DHT22;6870;50.944;6.932;2023-07-13T11:31:02;26.40;17.90
7341;DHT22;6870;50.944;6.932;2023-07-13T11:33:54;26.40;17.50
7341;DHT22;6870;50.944;6.932;2023-07-13T11:36:35;26.60;17.20
7341;DHT22;6870;50.944;6.932;2023-07-13T11:39:16;26.20;17.00
7341;DHT22;6870;50.944;6.932;2023-07-13T11:41:52;26.00;16.80
7341;DHT22;6870;50.944;6.932;2023-07-13T11:44:23;26.20;17.10
7341;DHT22;6870;50.944;6.932;2023-07-13T11:46:54;25.80;17.00
7341;DHT22;6870;50.944;6.932;2023-07-13T11:49:24;26.10;17.40
7341;DHT22;6870;50.944;6.932;2023-07-13T11:51:54;26.20;17.70
7341;DHT22;6870;50.944;6.932;2023-07-13T11:54:25;26.10;17.80
7341;DHT22;6870;50.944;6.932;2023-07-13T11:57:01;25.70;17.80
7341;DHT22;6870;50.944;6.932;2023-07-13T11:59:45;25.70;17.90
7341;DHT22;6870;50.944;6.932;2023-07-13T12:02:17;26.10;18.30
7341;DHT22;6870;50.944;6.932;2023-07-13T12:04:50;25.90;17.90
7341;DHT22;6870;50.944;6.932;2023-07-13T12:07:19;25.50;17.70
7341;DHT22;6870;50.944;6.932;2023-07-13T12:09:47;25.80;17.70
7341;DHT22;6870;50.944;6.932;2023-07-13T12:12:21;25.90;17.70
7341;DHT22;6870;50.944;6.932;2023-07-13T12:14:51;25.70;17.90
7341;DHT22;6870;50.944;6.932;2023-07-13T12:17:21;25.60;17.90
7341;DHT22;6870;50.944;6.932;2023-07-13T12:19:52;25.60;17.60
7341;DHT22;6870;50.944;6.932;2023-07-13T12:22:21;25.90;17.70
7341;DHT22;6870;50.944;6.932;2023-07-13T12:24:51;25.70;17.60
7341;DHT22;6870;50.944;6.932;2023-07-13T12:27:24;25.50;17.40
7341;DHT22;6870;50.944;6.932;2023-07-13T12:29:58;25.60;17.60
7341;DHT22;6870;50.944;6.932;2023-07-13T12:32:27;25.50;17.10
7341;DHT22;6870;50.944;6.932;2023-07-13T12:35:02;25.50;17.00
7341;DHT22;6870;50.944;6.932;2023-07-13T12:37:41;25.50;17.20
7341;DHT22;6870;50.944;6.932;2023-07-13T12:40:13;26.00;17.20
7341;DHT22;6870;50.944;6.932;2023-07-13T12:42:46;25.60;17.00
7341;DHT22;6870;50.944;6.932;2023-07-13T12:45:18;25.90;17.10
7341;DHT22;6870;50.944;6.932;2023-07-13T12:47:52;25.60;17.20
7341;DHT22;6870;50.944;6.932;2023-07-13T12:50:23;25.70;17.50
7341;DHT22;6870;50.944;6.932;2023-07-13T12:52:54;25.60;17.80
7341;DHT22;6870;50.944;6.932;2023-07-13T12:55:25;25.90;17.60
7341;DHT22;6870;50.944;6.932;2023-07-13T12:57:55;25.80;17.00
7341;DHT22;6870;50.944;6.932;2023-07-13T13:00:28;26.00;16.90
7341;DHT22;6870;50.944;6.932;2023-07-13T13:03:04;26.00;17.00
7341;DHT22;6870;50.944;6.932;2023-07-13T13:05:57;25.80;17.10
7341;DHT22;6870;50.944;6.932;2023-07-13T13:08:27;26.10;16.90
7341;DHT22;6870;50.944;6.932;2023-07-13T13:10:55;26.20;16.60
7341;DHT22;6870;50.944;6.932;2023-07-13T13:13:25;26.40;16.50
7341;DHT22;6870;50.944;6.932;2023-07-13T13:15:53;26.40;16.40
7341;DHT22;6870;50.944;6.932;2023-07-13T13:18:24;26.70;16.30
7341;DHT22;6870;50.944;6.932;2023-07-13T13:20:52;26.60;16.00
7341;DHT22;6870;50.944;6.932;2023-07-13T13:23:20;26.80;16.00
7341;DHT22;6870;50.944;6.932;2023-07-13T13:25:50;26.60;16.00
7341;DHT22;6870;50.944;6.932;2023-07-13T13:28:20;26.90;15.40
7341;DHT22;6870;50.944;6.932;2023-07-13T13:30:51;26.60;15.30
7341;DHT22;6870;50.944;6.932;2023-07-13T13:33:21;26.70;15.30
7341;DHT22;6870;50.944;6.932;2023-07-13T13:35:50;27.10;15.60
7341;DHT22;6870;50.944;6.932;2023-07-13T13:38:21;27.10;15.50
7341;DHT22;6870;50.944;6.932;2023-07-13T13:40:52;27.10;15.60
7341;DHT22;6870;50.944;6.932;2023-07-13T13:43:22;27.20;15.60
7341;DHT22;6870;50.944;6.932;2023-07-13T13:45:56;27.00;15.50
7341;DHT22;6870;50.944;6.932;2023-07-13T13:48:30;26.60;15.30
7341;DHT22;6870;50.944;6.932;2023-07-13T13:51:01;27.20;15.40
7341;DHT22;6870;50.944;6.932;2023-07-13T13:53:39;26.80;14.90
7341;DHT22;6870;50.944;6.932;2023-07-13T13:56:07;26.90;14.50
7341;DHT22;6870;50.944;6.932;2023-07-13T13:58:35;26.80;14.70
7341;DHT22;6870;50.944;6.932;2023-07-13T14:01:05;27.00;14.60
7341;DHT22;6870;50.944;6.932;2023-07-13T14:03:36;26.70;14.50
7341;DHT22;6870;50.944;6.932;2023-07-13T14:06:04;26.60;14.00
7341;DHT22;6870;50.944;6.932;2023-07-13T14:08:32;27.00;14.10
7341;DHT22;6870;50.944;6.932;2023-07-13T14:11:00;27.10;14.20
7341;DHT22;6870;50.944;6.932;2023-07-13T14:13:34;27.00;14.00
7341;DHT22;6870;50.944;6.932;2023-07-13T14:16:10;26.60;13.90
7341;DHT22;6870;50.944;6.932;2023-07-13T14:18:40;27.10;14.30
7341;DHT22;6870;50.944;6.932;2023-07-13T14:21:13;27.00;14.10
7341;DHT22;6870;50.944;6.932;2023-07-13T14:23:44;27.10;14.10
7341;DHT22;6870;50.944;6.932;2023-07-13T14:26:14;26.70;13.90
7341;DHT22;6870;50.944;6.932;2023-07-13T14:28:45;27.10;14.10
7341;DHT22;6870;50.944;6.932;2023-07-13T14:31:17;27.10;14.50
7341;DHT22;6870;50.944;6.932;2023-07-13T14:33:46;27.20;14.10
7341;DHT22;6870;50.944;6.932;2023-07-13T14:36:26;27.10;14.00
7341;DHT22;6870;50.944;6.932;2023-07-13T14:38:56;27.00;13.90
7341;DHT22;6870;50.944;6.932;2023-07-13T14:41:25;27.10;13.90
7341;DHT22;6870;50.944;6.932;2023-07-13T14:43:53;27.30;14.10
7341;DHT22;6870;50.944;6.932;2023-07-13T14:46:29;27.10;13.80
7341;DHT22;6870;50.944;6.932;2023-07-13T14:49:02;27.00;13.90
7341;DHT22;6870;50.944;6.932;2023-07-13T14:51:33;27.00;14.40
7341;DHT22;6870;50.944;6.932;2023-07-13T14:54:03;27.00;14.60
7341;DHT22;6870;50.944;6.932;2023-07-13T14:56:32;27.20;14.00
7341;DHT22;6870;50.944;6.932;2023-07-13T14:59:01;27.00;13.80
7341;DHT22;6870;50.944;6.932;2023-07-13T15:01:30;27.00;13.80
7341;DHT22;6870;50.944;6.932;2023-07-13T15:03:59;27.30;14.10
7341;DHT22;6870;50.944;6.932;2023-07-13T15:06:28;27.00;13.70
7341;DHT22;6870;50.944;6.932;2023-07-13T15:08:59;27.30;13.80
7341;DHT22;6870;50.944;6.932;2023-07-13T15:11:30;27.50;14.10
7341;DHT22;6870;50.944;6.932;2023-07-13T15:13:59;27.30;13.90
7341;DHT22;6870;50.944;6.932;2023-07-13T15:16:27;27.20;14.00
7341;DHT22;6870;50.944;6.932;2023-07-13T15:18:56;27.00;13.70
7341;DHT22;6870;50.944;6.932;2023-07-13T15:21:25;27.50;14.30
7341;DHT22;6870;50.944;6.932;2023-07-13T15:23:57;27.00;13.10
7341;DHT22;6870;50.944;6.932;2023-07-13T15:26:26;27.20;13.60
7341;DHT22;6870;50.944;6.932;2023-07-13T15:28:54;27.50;13.50
7341;DHT22;6870;50.944;6.932;2023-07-13T15:31:25;27.00;13.20
7341;DHT22;6870;50.944;6.932;2023-07-13T15:33:57;27.30;13.60
7341;DHT22;6870;50.944;6.932;2023-07-13T15:36:26;26.90;13.10
7341;DHT22;6870;50.944;6.932;2023-07-13T15:38:55;27.00;13.40
7341;DHT22;6870;50.944;6.932;2023-07-13T15:41:26;27.00;13.40
7341;DHT22;6870;50.944;6.932;2023-07-13T15:43:57;27.30;13.70
7341;DHT22;6870;50.944;6.932;2023-07-13T15:46:27;27.10;13.60
7341;DHT22;6870;50.944;6.932;2023-07-13T15:48:57;27.10;13.60
7341;DHT22;6870;50.944;6.932;2023-07-13T15:51:28;27.00;13.70
7341;DHT22;6870;50.944;6.932;2023-07-13T15:54:00;27.00;13.80
7341;DHT22;6870;50.944;6.932;2023-07-13T15:56:35;27.00;13.90
7341;DHT22;6870;50.944;6.932;2023-07-13T15:59:04;27.00;14.00
7341;DHT22;6870;50.944;6.932;2023-07-13T16:01:33;27.20;14.10
7341;DHT22;6870;50.944;6.932;2023-07-13T16:04:02;27.00;14.20
7341;DHT22;6870;50.944;6.932;2023-07-13T16:06:34;27.10;14.40
7341;DHT22;6870;50.944;6.932;2023-07-13T16:09:06;27.00;14.50
7341;DHT22;6870;50.944;6.932;2023-07-13T16:11:38;27.10;14.80
7341;DHT22;6870;50.944;6.932;2023-07-13T16:14:08;27.50;15.50
7341;DHT22;6870;50.944;6.932;2023-07-13T16:16:39;27.10;15.50
7341;DHT22;6870;50.944;6.932;2023-07-13T16:19:09;27.40;15.70
7341;DHT22;6870;50.944;6.932;2023-07-13T16:21:42;27.50;15.80
7341;DHT22;6870;50.944;6.932;2023-07-13T16:24:18;27.10;15.50
7341;DHT22;6870;50.944;6.932;2023-07-13T16:26:49;27.10;15.60